Time;durP1;ratioP1;P1;durP2;ratioP2;P2;SDS_P1;SDS_P2;PMS_P1;PMS_P2;Temp;Humidity;BMP_temperature;BMP_pressure;BME280_temperature;BME280_humidity;BME280_pressure;Samples;Min_cycle;Max_cycle;Signal;HPM_P1;HPM_P2
2022/10/31 00:02:10;;;;;;;21.23;13.20;;;13.50;99.90;;;;;;5100923;28;20047;-76
2022/10/31 00:04:36;;;;;;;20.55;12.32;;;13.20;99.90;;;;;;5122386;27;20058;-76
2022/10/31 00:07:01;;;;;;;17.63;11.38;;;13.00;99.90;;;;;;5123394;28;20031;-78
2022/10/31 00:09:27;;;;;;;17.13;11.80;;;13.60;99.90;;;;;;5105763;27;20103;-78
2022/10/31 00:11:53;;;;;;;17.35;11.00;;;12.90;99.90;;;;;;5122295;27;20534;-77
2022/10/31 00:14:18;;;;;;;16.40;11.00;;;13.10;99.90;;;;;;5142932;27;20061;-78
2022/10/31 00:16:44;;;;;;;17.55;11.43;;;13.00;99.90;;;;;;5107133;27;20049;-76
2022/10/31 00:19:09;;;;;;;17.23;11.60;;;12.70;99.90;;;;;;5141522;27;20039;-76
2022/10/31 00:21:36;;;;;;;17.13;10.98;;;13.50;99.90;;;;;;5122544;27;20099;-78
2022/10/31 00:24:02;;;;;;;18.60;12.45;;;12.70;99.90;;;;;;5124995;27;20058;-76
2022/10/31 00:26:31;;;;;;;19.95;12.52;;;12.60;99.90;;;;;;5143200;27;20023;-78
2022/10/31 00:28:57;;;;;;;22.02;13.10;;;12.60;99.90;;;;;;5142555;27;20042;-77
2022/10/31 00:31:23;;;;;;;18.48;13.25;;;13.50;99.90;;;;;;5121715;28;20051;-76
2022/10/31 00:33:49;;;;;;;16.73;12.50;;;12.50;99.90;;;;;;5122126;27;20070;-76
2022/10/31 00:36:18;;;;;;;22.42;12.98;;;12.50;99.90;;;;;;5118388;28;20027;-78
2022/10/31 00:38:45;;;;;;;20.27;11.77;;;12.50;99.90;;;;;;5125256;28;20098;-78
2022/10/31 00:41:12;;;;;;;21.15;13.45;;;12.50;99.90;;;;;;5121957;28;20051;-77
2022/10/31 00:43:38;;;;;;;16.83;12.02;;;12.50;99.90;;;;;;5125135;28;20035;-78
2022/10/31 00:46:04;;;;;;;24.77;12.13;;;12.60;99.90;;;;;;5120821;27;20043;-78
2022/10/31 00:48:30;;;;;;;14.68;11.32;;;12.40;99.90;;;;;;5085485;28;20483;-77
2022/10/31 00:50:56;;;;;;;18.08;11.95;;;12.40;99.90;;;;;;5101864;28;20294;-77
2022/10/31 00:53:23;;;;;;;18.83;11.77;;;12.40;99.90;;;;;;5125686;27;20048;-76
2022/10/31 00:55:57;;;;;;;17.10;12.13;;;12.40;99.90;;;;;;5124168;27;20059;-76
2022/10/31 00:58:26;;;;;;;17.10;12.55;;;12.40;99.90;;;;;;5120549;27;20126;-76
2022/10/31 01:00:55;;;;;;;20.98;12.98;;;11.50;99.90;;;;;;5125613;27;20445;-77
2022/10/31 01:03:26;;;;;;;25.88;14.63;;;13.20;99.90;;;;;;5126021;27;20043;-78
2022/10/31 01:06:02;;;;;;;20.45;13.20;;;12.30;99.90;;;;;;5122216;27;20499;-77
2022/10/31 01:08:28;;;;;;;21.83;13.93;;;13.00;99.90;;;;;;5108599;28;20087;-77
2022/10/31 01:11:21;;;;;;;26.05;14.25;;;12.20;99.90;;;;;;5127231;27;20402;-78
2022/10/31 01:13:49;;;;;;;17.63;11.90;;;13.00;99.90;;;;;;5121400;27;20056;-77
2022/10/31 01:16:20;;;;;;;19.08;13.48;;;12.20;99.90;;;;;;5130418;27;20050;-78
2022/10/31 01:18:46;;;;;;;17.88;12.02;;;12.20;99.90;;;;;;5121650;27;20044;-78
2022/10/31 01:21:18;;;;;;;17.38;11.23;;;12.20;99.90;;;;;;5123323;27;20521;-78
2022/10/31 01:23:44;;;;;;;17.40;11.63;;;12.20;99.90;;;;;;5129094;27;20044;-78
2022/10/31 01:26:13;;;;;;;21.05;12.65;;;12.20;99.90;;;;;;5124055;27;20050;-78
2022/10/31 01:28:53;;;;;;;15.40;11.75;;;13.30;99.90;;;;;;5123305;27;20050;-78
2022/10/31 01:31:21;;;;;;;20.23;11.57;;;12.20;99.90;;;;;;5135797;27;20054;-78
2022/10/31 01:33:47;;;;;;;16.92;11.45;;;12.20;99.90;;;;;;5123908;27;20538;-77
2022/10/31 01:36:22;;;;;;;15.18;11.05;;;12.20;99.90;;;;;;5125876;27;20051;-77
2022/10/31 01:38:49;;;;;;;17.75;12.20;;;12.20;99.90;;;;;;5109133;27;20031;-78
2022/10/31 01:41:17;;;;;;;25.83;12.65;;;12.10;99.90;;;;;;5126409;27;20049;-77
2022/10/31 01:43:57;;;;;;;20.42;10.93;;;12.10;99.90;;;;;;5127217;27;20034;-75
2022/10/31 01:46:33;;;;;;;22.00;12.40;;;12.10;99.90;;;;;;5122009;27;20500;-76
2022/10/31 01:49:02;;;;;;;16.58;11.63;;;12.10;99.90;;;;;;5109216;27;20433;-76
2022/10/31 01:51:32;;;;;;;18.75;12.20;;;12.10;99.90;;;;;;5148630;27;20035;-76
2022/10/31 01:54:05;;;;;;;15.57;11.98;;;12.00;99.90;;;;;;5109238;27;20530;-76
2022/10/31 01:56:37;;;;;;;16.75;12.00;;;12.10;99.90;;;;;;5124378;27;20371;-76
2022/10/31 01:59:05;;;;;;;21.35;12.45;;;12.00;99.90;;;;;;5123452;27;20130;-76
2022/10/31 02:01:31;;;;;;;21.15;12.18;;;12.00;99.90;;;;;;5145472;27;20542;-76
2022/10/31 02:03:57;;;;;;;17.20;11.95;;;12.00;99.90;;;;;;5145292;27;20035;-75
2022/10/31 02:06:45;;;;;;;22.45;12.68;;;12.00;99.90;;;;;;5108475;27;20034;-77
2022/10/31 02:09:12;;;;;;;16.20;11.40;;;12.00;99.90;;;;;;5128309;27;20397;-79
2022/10/31 02:11:38;;;;;;;22.63;12.02;;;12.00;99.90;;;;;;5146569;27;20042;-78
2022/10/31 02:14:04;;;;;;;22.15;12.63;;;11.70;99.90;;;;;;5150037;27;20141;-77
2022/10/31 02:16:30;;;;;;;20.30;12.45;;;11.90;99.90;;;;;;5142441;27;20043;-79
2022/10/31 02:18:56;;;;;;;19.58;12.88;;;12.00;99.90;;;;;;5112034;27;20145;-76
2022/10/31 02:21:44;;;;;;;20.45;13.07;;;11.90;99.90;;;;;;5141639;27;20043;-76
2022/10/31 02:24:30;;;;;;;18.70;12.55;;;12.00;99.90;;;;;;5113533;27;20042;-76
2022/10/31 02:27:31;;;;;;;19.60;12.50;;;11.80;99.90;;;;;;5122253;27;20695;-78
2022/10/31 02:30:06;;;;;;;17.27;12.65;;;11.80;99.90;;;;;;5127046;27;20054;-76
2022/10/31 02:33:04;;;;;;;18.70;11.98;;;11.80;99.90;;;;;;5129135;27;20550;-77
2022/10/31 02:35:40;;;;;;;20.50;12.23;;;11.80;99.90;;;;;;5144035;27;20034;-78
2022/10/31 02:38:18;;;;;;;17.80;12.60;;;11.80;99.90;;;;;;5125843;27;20398;-76
2022/10/31 02:40:46;;;;;;;21.20;12.50;;;11.80;99.90;;;;;;5127387;27;20975;-77
2022/10/31 02:43:27;;;;;;;18.42;12.40;;;11.80;99.90;;;;;;5107326;27;20411;-77
2022/10/31 02:46:05;;;;;;;22.27;12.35;;;11.80;99.90;;;;;;5104976;27;20501;-76
2022/10/31 02:48:34;;;;;;;24.10;13.38;;;11.70;99.90;;;;;;5122025;27;20494;-78
2022/10/31 02:51:02;;;;;;;21.30;12.95;;;11.70;99.90;;;;;;5145257;27;20039;-76
2022/10/31 02:53:33;;;;;;;19.83;13.13;;;11.70;99.90;;;;;;5121674;27;20074;-78
2022/10/31 02:56:13;;;;;;;25.67;13.68;;;11.60;99.90;;;;;;5145107;27;20457;-76
2022/10/31 02:58:45;;;;;;;21.25;13.35;;;11.60;99.90;;;;;;5141633;27;20043;-76
2022/10/31 03:01:34;;;;;;;19.67;14.20;;;11.70;99.90;;;;;;5141549;27;20031;-76
2022/10/31 03:04:28;;;;;;;21.85;14.02;;;11.60;99.90;;;;;;5132105;27;20051;-78
2022/10/31 03:07:28;;;;;;;16.95;12.25;;;11.60;99.90;;;;;;5149151;27;20074;-79
2022/10/31 03:10:04;;;;;;;18.92;13.45;;;11.60;99.90;;;;;;5122860;27;20047;-79
2022/10/31 03:12:42;;;;;;;17.88;12.88;;;11.60;99.90;;;;;;5146038;27;20039;-78
2022/10/31 03:15:28;;;;;;;18.52;13.55;;;11.60;99.90;;;;;;5127966;27;20042;-78
2022/10/31 03:18:17;;;;;;;21.25;12.57;;;11.60;99.90;;;;;;5145529;27;20300;-78
2022/10/31 03:21:10;;;;;;;17.33;11.80;;;11.60;99.90;;;;;;5119237;27;20050;-79
2022/10/31 03:23:39;;;;;;;18.50;13.05;;;11.60;99.90;;;;;;5094856;27;20396;-78
2022/10/31 03:26:07;;;;;;;15.35;11.82;;;11.60;99.90;;;;;;5144286;27;20071;-77
2022/10/31 03:28:44;;;;;;;18.77;11.85;;;11.50;99.90;;;;;;5126128;27;20058;-78
2022/10/31 03:31:16;;;;;;;15.25;11.23;;;11.50;99.90;;;;;;5141111;27;20510;-79
2022/10/31 03:33:43;;;;;;;18.88;11.18;;;11.50;99.90;;;;;;5143471;27;20049;-79
2022/10/31 03:36:13;;;;;;;17.20;11.73;;;11.50;99.90;;;;;;5144340;27;20042;-78
2022/10/31 03:38:42;;;;;;;18.70;11.52;;;11.40;99.90;;;;;;5108090;27;20045;-78
2022/10/31 03:41:13;;;;;;;18.92;12.57;;;12.00;99.90;;;;;;5140646;27;20043;-78
2022/10/31 03:43:46;;;;;;;15.75;11.57;;;12.00;99.90;;;;;;5123992;27;20051;-76
2022/10/31 03:46:12;;;;;;;15.90;11.18;;;11.40;99.90;;;;;;5140437;27;20039;-76
2022/10/31 03:48:38;;;;;;;14.05;11.60;;;11.30;99.90;;;;;;5108555;27;20466;-76
2022/10/31 03:51:29;;;;;;;17.50;11.90;;;11.40;99.90;;;;;;5139066;27;20043;-77
2022/10/31 03:54:16;;;;;;;17.60;11.57;;;10.60;99.90;;;;;;5126639;27;20046;-78
2022/10/31 03:56:49;;;;;;;18.05;11.65;;;11.30;99.90;;;;;;5114824;27;20047;-77
2022/10/31 03:59:44;;;;;;;17.95;12.52;;;11.30;99.90;;;;;;5104439;27;20078;-76
2022/10/31 04:02:18;;;;;;;15.13;11.55;;;11.30;99.90;;;;;;5144157;27;20050;-76
2022/10/31 04:04:46;;;;;;;14.27;11.52;;;11.20;99.90;;;;;;5124540;27;20493;-79
2022/10/31 04:07:13;;;;;;;13.18;11.52;;;11.30;99.90;;;;;;5122145;27;20039;-78
2022/10/31 04:09:41;;;;;;;15.40;11.30;;;11.30;99.90;;;;;;5129505;28;20043;-78
2022/10/31 04:12:10;;;;;;;14.40;12.02;;;11.20;99.90;;;;;;5120818;28;20043;-78
2022/10/31 04:14:39;;;;;;;15.15;11.70;;;11.30;99.90;;;;;;5117830;27;20049;-77
2022/10/31 04:17:09;;;;;;;19.05;13.23;;;11.20;99.90;;;;;;5141415;27;20435;-79
2022/10/31 04:19:35;;;;;;;16.10;11.85;;;11.20;99.90;;;;;;5136051;27;20043;-77
2022/10/31 04:22:01;;;;;;;14.98;12.55;;;11.10;99.90;;;;;;5127537;27;20039;-77
2022/10/31 04:24:28;;;;;;;13.80;11.65;;;10.70;99.90;;;;;;5111302;27;20454;-78
2022/10/31 04:26:53;;;;;;;16.35;11.95;;;11.10;99.90;;;;;;5113295;27;20046;-79
2022/10/31 04:29:19;;;;;;;13.35;11.45;;;11.10;99.90;;;;;;5145118;27;20042;-76
2022/10/31 04:31:44;;;;;;;15.02;11.50;;;11.10;99.90;;;;;;5127590;27;20371;-78
2022/10/31 04:34:10;;;;;;;12.00;10.52;;;11.20;99.90;;;;;;5142973;27;20402;-78
2022/10/31 04:36:36;;;;;;;14.95;11.50;;;11.10;99.90;;;;;;5127455;27;20068;-77
2022/10/31 04:39:02;;;;;;;15.95;11.80;;;11.00;99.90;;;;;;5126981;27;20058;-77
2022/10/31 04:41:27;;;;;;;12.55;11.25;;;11.10;99.90;;;;;;5145093;27;20390;-77
2022/10/31 04:43:53;;;;;;;15.73;12.05;;;11.00;99.90;;;;;;5148281;27;20045;-77
2022/10/31 04:46:19;;;;;;;12.30;11.00;;;11.10;99.90;;;;;;5148655;27;20110;-75
2022/10/31 04:48:45;;;;;;;13.63;10.00;;;11.00;99.90;;;;;;5130989;27;20081;-77
2022/10/31 04:51:11;;;;;;;14.25;10.77;;;11.70;99.90;;;;;;5110190;27;20397;-77
2022/10/31 04:53:36;;;;;;;12.32;11.15;;;11.00;99.90;;;;;;5126205;27;20042;-77
2022/10/31 04:56:02;;;;;;;16.17;11.18;;;12.20;99.90;;;;;;5145415;27;20497;-78
2022/10/31 04:58:28;;;;;;;12.50;10.77;;;11.00;99.90;;;;;;5144807;27;20027;-77
2022/10/31 05:00:55;;;;;;;17.08;11.70;;;11.00;99.90;;;;;;5108278;27;20043;-78
2022/10/31 05:03:21;;;;;;;11.43;10.23;;;11.00;99.90;;;;;;5132064;27;20035;-77
2022/10/31 05:05:47;;;;;;;13.68;10.50;;;10.90;99.90;;;;;;5141885;27;20489;-79
2022/10/31 05:08:14;;;;;;;14.52;11.90;;;10.90;99.90;;;;;;5141313;27;20039;-79
2022/10/31 05:10:40;;;;;;;13.65;10.50;;;10.90;99.90;;;;;;5129349;27;20091;-78
2022/10/31 05:13:06;;;;;;;11.82;10.30;;;10.90;99.90;;;;;;5123064;27;20126;-76
2022/10/31 05:15:32;;;;;;;14.63;11.05;;;10.90;99.90;;;;;;5112618;27;20042;-76
2022/10/31 05:17:58;;;;;;;14.70;11.20;;;10.90;99.90;;;;;;5123190;27;20469;-78
2022/10/31 05:20:26;;;;;;;13.70;11.77;;;10.80;99.90;;;;;;5113825;27;20042;-75
2022/10/31 05:22:54;;;;;;;16.73;12.18;;;11.20;99.90;;;;;;5105435;27;20111;-76
2022/10/31 05:25:22;;;;;;;15.57;12.02;;;10.80;99.90;;;;;;5131391;27;20047;-77
2022/10/31 05:27:49;;;;;;;14.05;11.25;;;10.70;99.90;;;;;;5141445;27;20081;-76
2022/10/31 05:30:18;;;;;;;15.70;12.23;;;10.80;99.90;;;;;;5122336;27;20070;-76
2022/10/31 05:32:46;;;;;;;18.00;11.70;;;10.70;99.90;;;;;;5124087;27;20047;-78
2022/10/31 05:35:20;;;;;;;14.25;11.60;;;10.70;99.90;;;;;;5121321;27;20047;-77
2022/10/31 05:37:46;;;;;;;15.55;11.70;;;10.70;99.90;;;;;;5128687;27;20544;-78
2022/10/31 05:40:14;;;;;;;12.75;10.95;;;11.60;99.90;;;;;;5126314;27;20446;-77
2022/10/31 05:42:41;;;;;;;13.18;11.07;;;10.60;99.90;;;;;;5138874;27;20081;-77
2022/10/31 05:45:11;;;;;;;14.95;10.70;;;10.60;99.90;;;;;;5148754;27;20150;-77
2022/10/31 05:47:37;;;;;;;13.70;10.68;;;10.60;99.90;;;;;;5125885;27;20038;-77
2022/10/31 05:50:03;;;;;;;14.40;11.48;;;10.60;99.90;;;;;;5125872;27;20045;-76
2022/10/31 05:52:29;;;;;;;17.23;11.35;;;10.60;99.90;;;;;;5107025;27;20385;-76
2022/10/31 05:54:54;;;;;;;13.60;11.57;;;9.80;99.90;;;;;;5144460;27;20042;-77
2022/10/31 05:57:20;;;;;;;13.43;10.65;;;10.60;99.90;;;;;;5143453;27;20035;-76
2022/10/31 05:59:46;;;;;;;13.88;10.38;;;11.60;99.90;;;;;;5145013;27;20039;-78
2022/10/31 06:02:11;;;;;;;13.05;10.45;;;11.40;99.90;;;;;;5141121;27;20067;-79
2022/10/31 06:04:37;;;;;;;17.23;11.18;;;10.60;99.90;;;;;;5130529;27;20042;-76
2022/10/31 06:07:03;;;;;;;15.85;11.38;;;10.50;99.90;;;;;;5140913;27;20046;-78
2022/10/31 06:09:28;;;;;;;11.93;10.43;;;10.50;99.90;;;;;;5123793;27;20050;-78
2022/10/31 06:11:54;;;;;;;17.70;11.23;;;11.30;99.90;;;;;;5126141;27;20043;-77
2022/10/31 06:14:19;;;;;;;15.35;11.43;;;10.50;99.90;;;;;;5148794;27;20034;-76
2022/10/31 06:16:45;;;;;;;17.08;10.70;;;11.20;99.90;;;;;;5129340;27;20363;-76
2022/10/31 06:19:11;;;;;;;13.55;10.82;;;10.50;99.90;;;;;;5104443;27;20103;-78
2022/10/31 06:21:36;;;;;;;12.18;10.88;;;10.50;99.90;;;;;;5153423;27;20042;-78
2022/10/31 06:24:02;;;;;;;14.57;11.68;;;10.50;99.90;;;;;;5132896;27;20028;-78
2022/10/31 06:26:28;;;;;;;15.38;11.35;;;10.50;99.90;;;;;;5140664;27;20162;-79
2022/10/31 06:28:53;;;;;;;15.85;10.77;;;10.40;99.90;;;;;;5145200;27;20082;-79
2022/10/31 06:31:19;;;;;;;18.48;10.93;;;10.40;99.90;;;;;;5121814;27;20059;-78
2022/10/31 06:33:47;;;;;;;15.07;11.43;;;11.30;99.90;;;;;;5145904;27;20039;-78
2022/10/31 06:36:13;;;;;;;13.27;11.10;;;10.40;99.90;;;;;;5121881;27;20042;-77
2022/10/31 06:38:39;;;;;;;11.88;10.68;;;10.40;99.90;;;;;;5146591;27;20089;-77
2022/10/31 06:41:06;;;;;;;16.40;10.90;;;10.80;99.90;;;;;;5141007;27;20064;-78
2022/10/31 06:43:31;;;;;;;16.55;10.65;;;11.30;99.90;;;;;;5149005;27;20039;-77
2022/10/31 06:46:01;;;;;;;13.20;10.45;;;10.40;99.90;;;;;;5120967;27;20035;-78
2022/10/31 06:48:26;;;;;;;15.50;10.32;;;10.40;99.90;;;;;;5141016;27;20035;-78
2022/10/31 06:50:57;;;;;;;12.48;9.25;;;10.40;99.90;;;;;;5146621;27;20039;-79
2022/10/31 06:53:22;;;;;;;15.30;10.73;;;10.30;99.90;;;;;;5120830;27;20126;-78
2022/10/31 06:55:48;;;;;;;18.23;10.60;;;10.30;99.90;;;;;;5147489;27;20125;-79
2022/10/31 06:58:13;;;;;;;18.08;10.35;;;10.30;99.90;;;;;;5121405;27;20097;-78
2022/10/31 07:00:39;;;;;;;14.77;10.88;;;11.10;99.90;;;;;;5123702;27;20119;-79
2022/10/31 07:03:08;;;;;;;13.82;10.98;;;10.30;99.90;;;;;;5124848;27;20031;-79
2022/10/31 07:05:34;;;;;;;14.93;10.57;;;10.30;99.90;;;;;;5115868;27;20054;-78
2022/10/31 07:08:02;;;;;;;12.30;10.70;;;10.30;99.90;;;;;;5142634;27;20052;-78
2022/10/31 07:10:30;;;;;;;14.25;10.93;;;10.30;99.90;;;;;;5142435;27;20035;-79
2022/10/31 07:12:57;;;;;;;16.05;11.35;;;10.30;99.90;;;;;;5124793;27;20038;-79
2022/10/31 07:15:24;;;;;;;13.80;10.57;;;10.30;99.90;;;;;;5142557;27;20402;-78
2022/10/31 07:17:49;;;;;;;15.38;10.90;;;10.30;99.90;;;;;;5124225;27;20030;-78
2022/10/31 07:20:15;;;;;;;12.27;10.90;;;10.30;99.90;;;;;;5144071;27;20617;-78
2022/10/31 07:22:41;;;;;;;16.67;11.82;;;10.50;99.90;;;;;;5121323;27;20520;-78
2022/10/31 07:25:07;;;;;;;12.00;10.80;;;10.30;99.90;;;;;;5143784;27;20072;-79
2022/10/31 07:27:41;;;;;;;13.63;11.60;;;10.30;99.90;;;;;;5146777;27;20394;-79
2022/10/31 07:30:09;;;;;;;14.32;11.90;;;10.40;99.90;;;;;;5126170;27;20039;-79
2022/10/31 07:32:40;;;;;;;17.02;11.93;;;10.30;99.90;;;;;;5141141;27;20525;-78
2022/10/31 07:35:26;;;;;;;12.85;11.55;;;10.30;99.90;;;;;;5144528;27;20605;-78
2022/10/31 07:37:51;;;;;;;19.17;14.05;;;10.30;99.90;;;;;;5140471;27;20402;-78
2022/10/31 07:40:18;;;;;;;17.88;12.23;;;10.30;99.90;;;;;;5131697;27;20035;-78
2022/10/31 07:42:47;;;;;;;19.50;12.95;;;10.40;99.90;;;;;;5126274;27;20047;-79
2022/10/31 07:45:16;;;;;;;13.80;11.63;;;10.30;99.90;;;;;;5138975;27;20046;-77
2022/10/31 07:47:49;;;;;;;18.50;13.40;;;10.40;99.90;;;;;;5110492;27;20047;-78
2022/10/31 07:50:26;;;;;;;20.67;13.20;;;10.40;99.90;;;;;;5103107;28;20043;-77
2022/10/31 07:52:59;;;;;;;18.35;14.60;;;10.40;99.90;;;;;;5147266;27;20035;-78
2022/10/31 07:55:27;;;;;;;15.40;12.67;;;10.40;99.90;;;;;;5140244;27;20397;-77
2022/10/31 07:58:02;;;;;;;17.75;13.70;;;10.50;99.90;;;;;;5126456;27;20070;-76
2022/10/31 08:00:28;;;;;;;14.48;12.30;;;11.80;99.90;;;;;;5153963;27;20046;-76
2022/10/31 08:03:01;;;;;;;13.73;12.32;;;10.50;99.90;;;;;;5120773;27;20126;-78
2022/10/31 08:05:28;;;;;;;15.75;13.23;;;10.70;99.90;;;;;;5142846;27;20075;-78
2022/10/31 08:07:54;;;;;;;14.05;12.38;;;10.60;99.90;;;;;;5104829;27;20109;-77
2022/10/31 08:10:22;;;;;;;17.58;12.95;;;10.50;99.90;;;;;;5143080;27;20591;-78
2022/10/31 08:12:55;;;;;;;16.27;13.40;;;11.60;99.90;;;;;;5141929;27;20106;-78
2022/10/31 08:15:21;;;;;;;17.90;13.63;;;10.60;99.90;;;;;;5125011;27;20183;-78
2022/10/31 08:17:46;;;;;;;19.00;14.85;;;10.60;99.90;;;;;;5141656;27;20114;-78
2022/10/31 08:20:12;;;;;;;18.58;12.88;;;10.70;99.90;;;;;;5143313;27;20118;-78
2022/10/31 08:22:37;;;;;;;16.00;12.52;;;10.70;99.90;;;;;;5142056;27;20047;-78
2022/10/31 08:25:03;;;;;;;16.33;12.00;;;10.70;99.90;;;;;;5140199;27;20043;-78
2022/10/31 08:27:29;;;;;;;16.75;13.70;;;10.70;99.90;;;;;;5124720;27;20091;-78
2022/10/31 08:29:54;;;;;;;18.30;14.20;;;10.80;99.90;;;;;;5122513;27;20038;-78
2022/10/31 08:32:20;;;;;;;19.70;14.57;;;10.80;99.90;;;;;;5123938;27;20077;-78
2022/10/31 08:34:46;;;;;;;23.08;14.18;;;10.80;99.90;;;;;;5106089;27;20053;-78
2022/10/31 08:37:11;;;;;;;18.83;14.15;;;10.90;99.90;;;;;;5124179;27;20482;-78
2022/10/31 08:39:37;;;;;;;18.90;13.43;;;10.90;99.90;;;;;;5141919;27;20054;-78
2022/10/31 08:42:02;;;;;;;21.30;15.65;;;11.00;99.90;;;;;;5142765;27;20043;-78
2022/10/31 08:44:28;;;;;;;19.70;13.88;;;11.00;99.90;;;;;;5142804;27;20447;-78
2022/10/31 08:46:54;;;;;;;19.17;13.95;;;11.90;99.90;;;;;;5139992;27;20042;-78
2022/10/31 08:49:19;;;;;;;17.67;14.80;;;11.10;99.90;;;;;;5129460;27;20042;-78
2022/10/31 08:51:48;;;;;;;22.05;14.38;;;12.40;99.90;;;;;;5106044;27;20050;-77
2022/10/31 08:54:13;;;;;;;18.15;14.48;;;11.10;99.90;;;;;;5123521;27;20043;-79
2022/10/31 08:56:39;;;;;;;22.35;15.38;;;11.20;99.90;;;;;;5142207;27;20043;-77
2022/10/31 08:59:05;;;;;;;18.85;14.45;;;11.20;99.90;;;;;;5141532;27;20092;-84
2022/10/31 09:01:30;;;;;;;18.55;14.25;;;11.30;99.90;;;;;;5144960;27;20497;-73
2022/10/31 09:03:56;;;;;;;19.95;14.32;;;11.30;99.90;;;;;;5104459;27;20366;-84
2022/10/31 09:06:21;;;;;;;18.05;14.40;;;11.40;99.90;;;;;;5120608;27;20038;-77
2022/10/31 09:08:47;;;;;;;19.27;14.65;;;11.40;99.90;;;;;;5106648;27;20135;-78
2022/10/31 09:11:13;;;;;;;15.75;14.07;;;11.50;99.90;;;;;;5143225;27;20496;-78
2022/10/31 09:13:38;;;;;;;23.23;15.95;;;12.20;99.90;;;;;;5144339;27;20047;-77
2022/10/31 09:16:04;;;;;;;22.70;14.88;;;11.60;99.90;;;;;;5131813;27;20034;-77
2022/10/31 09:18:31;;;;;;;16.65;13.90;;;11.50;99.90;;;;;;5141835;27;20047;-78
2022/10/31 09:20:58;;;;;;;19.90;15.48;;;12.80;99.90;;;;;;5146507;27;20041;-77
2022/10/31 09:23:24;;;;;;;20.75;14.63;;;11.70;99.90;;;;;;5154717;27;20092;-77
2022/10/31 09:25:52;;;;;;;18.02;13.35;;;11.70;99.90;;;;;;5136458;27;20046;-77
2022/10/31 09:28:20;;;;;;;16.55;13.80;;;12.00;99.90;;;;;;5134970;27;20485;-78
2022/10/31 09:30:48;;;;;;;19.40;14.38;;;11.90;99.90;;;;;;5154161;27;20548;-77
2022/10/31 09:33:17;;;;;;;19.80;16.08;;;11.90;99.90;;;;;;5136176;27;20050;-74
2022/10/31 09:35:43;;;;;;;17.90;15.00;;;12.90;99.90;;;;;;5129495;27;20046;-73
2022/10/31 09:38:11;;;;;;;17.95;15.48;;;12.00;99.90;;;;;;5125311;27;20500;-73
2022/10/31 09:40:39;;;;;;;22.00;15.93;;;12.70;99.90;;;;;;5128611;27;20158;-77
2022/10/31 09:43:42;;;;;;;17.17;13.55;;;12.20;99.90;;;;;;5124462;27;20049;-78
2022/10/31 09:46:14;;;;;;;15.82;14.00;;;12.20;99.90;;;;;;5123985;27;20088;-78
2022/10/31 09:48:49;;;;;;;14.50;12.50;;;12.30;99.90;;;;;;5145650;27;20055;-82
2022/10/31 09:51:28;;;;;;;;;;;12.40;99.90;;;;;;5142351;27;20134;-81
2022/10/31 09:54:12;;;;;;;18.55;13.20;;;12.40;99.90;;;;;;5143391;27;19926;-79
2022/10/31 09:56:38;;;;;;;18.00;12.90;;;12.50;99.90;;;;;;5144355;27;20382;-75
2022/10/31 09:59:10;;;;;;;17.52;13.02;;;12.50;99.90;;;;;;5127121;27;20047;-75
2022/10/31 10:01:51;;;;;;;15.02;12.82;;;13.00;99.90;;;;;;5126624;27;20166;-76
2022/10/31 10:04:43;;;;;;;15.25;12.15;;;12.70;99.90;;;;;;5122558;27;20036;-76
2022/10/31 10:07:32;;;;;;;14.65;12.50;;;12.70;99.90;;;;;;5148694;27;20031;-76
2022/10/31 10:10:12;;;;;;;15.95;12.20;;;12.80;99.90;;;;;;5079122;27;20051;-75
2022/10/31 10:13:11;;;;;;;18.60;12.43;;;12.90;99.90;;;;;;5144879;27;20529;-75
2022/10/31 10:16:14;;;;;;;15.45;13.60;;;13.00;99.90;;;;;;5139012;27;20113;-76
2022/10/31 10:18:51;;;;;;;13.75;11.93;;;13.10;99.90;;;;;;5149055;27;20523;-76
2022/10/31 10:21:42;;;;;;;18.80;12.52;;;13.20;99.90;;;;;;5111022;27;20042;-78
2022/10/31 10:24:32;;;;;;;19.27;12.48;;;13.30;99.90;;;;;;5145504;27;20472;-78
2022/10/31 10:27:18;;;;;;;15.55;12.43;;;13.40;99.90;;;;;;5131892;27;20088;-77
2022/10/31 10:30:00;;;;;;;16.23;12.15;;;13.40;99.90;;;;;;5128956;27;20039;-76
2022/10/31 10:32:29;;;;;;;16.75;11.93;;;13.50;99.90;;;;;;5145229;27;20057;-77
2022/10/31 10:35:04;;;;;;;15.50;12.43;;;13.50;99.90;;;;;;5141733;27;20092;-77
2022/10/31 10:37:52;;;;;;;14.35;11.93;;;14.20;99.90;;;;;;5119322;27;20123;-77
2022/10/31 10:40:24;;;;;;;14.57;12.27;;;13.80;99.90;;;;;;5145241;27;20490;-78
2022/10/31 10:43:19;;;;;;;14.20;12.00;;;13.70;99.90;;;;;;5108349;27;20498;-76
2022/10/31 10:48:52;;;;;;;17.67;11.70;;;13.60;99.90;;;;;;5129344;27;20043;-77
2022/10/31 10:51:33;;;;;;;16.50;11.70;;;13.50;99.90;;;;;;5140683;27;20039;-78
2022/10/31 10:54:15;;;;;;;16.77;12.20;;;13.60;99.90;;;;;;5129738;27;20480;-77
2022/10/31 10:57:22;;;;;;;17.20;12.52;;;13.70;99.90;;;;;;5122918;27;20055;-77
2022/10/31 10:59:51;;;;;;;14.13;11.35;;;13.80;99.90;;;;;;5136280;27;20054;-77
2022/10/31 11:02:30;;;;;;;13.63;10.82;;;13.80;99.90;;;;;;5141338;27;20076;-77
2022/10/31 11:04:59;;;;;;;16.67;12.10;;;13.90;99.90;;;;;;5129799;27;20046;-78
2022/10/31 11:07:25;;;;;;;17.75;11.00;;;14.10;99.90;;;;;;5145278;27;20455;-78
2022/10/31 11:10:02;;;;;;;21.20;11.25;;;14.10;99.90;;;;;;5124112;27;20071;-77
2022/10/31 11:12:32;;;;;;;15.70;10.57;;;14.20;99.90;;;;;;5108818;27;20046;-78
2022/10/31 11:15:06;;;;;;;16.35;10.65;;;14.20;99.90;;;;;;5141313;27;20047;-78
2022/10/31 11:17:35;;;;;;;14.25;10.35;;;14.30;99.90;;;;;;5146284;27;20038;-77
2022/10/31 11:20:13;;;;;;;15.95;9.90;;;14.30;99.90;;;;;;5140805;27;20071;-76
2022/10/31 11:22:44;;;;;;;17.65;9.60;;;14.30;99.90;;;;;;5127309;27;20047;-77
2022/10/31 11:25:19;;;;;;;13.73;8.95;;;14.70;99.90;;;;;;5122706;27;20090;-77
2022/10/31 11:27:45;;;;;;;18.27;9.98;;;14.30;99.90;;;;;;5127126;27;20130;-77
2022/10/31 11:30:13;;;;;;;14.27;9.80;;;14.90;99.90;;;;;;5142504;27;20043;-76
2022/10/31 11:32:48;;;;;;;14.60;9.20;;;14.40;99.90;;;;;;5142329;27;20086;-78
2022/10/31 11:35:18;;;;;;;14.68;9.73;;;14.30;99.90;;;;;;5124489;27;20047;-77
2022/10/31 11:37:46;;;;;;;14.60;10.95;;;14.40;99.90;;;;;;5125467;27;20501;-78
2022/10/31 11:40:20;;;;;;;15.60;10.43;;;14.60;99.90;;;;;;5123276;27;20413;-77
2022/10/31 11:42:46;;;;;;;17.55;10.23;;;14.60;99.90;;;;;;5125180;27;20039;-78
2022/10/31 11:45:24;;;;;;;12.32;9.52;;;14.80;99.90;;;;;;5143073;27;20047;-77
2022/10/31 11:47:51;;;;;;;16.48;9.45;;;14.40;99.90;;;;;;5143193;27;20443;-76
2022/10/31 11:50:36;;;;;;;12.80;8.48;;;14.40;99.90;;;;;;5141563;27;20035;-78
2022/10/31 11:53:03;;;;;;;11.98;8.10;;;14.50;99.90;;;;;;5143351;27;20050;-76
2022/10/31 11:55:31;;;;;;;10.20;7.63;;;14.50;99.90;;;;;;5142053;27;20287;-77
2022/10/31 11:57:57;;;;;;;12.30;7.93;;;14.60;99.90;;;;;;5139739;27;20150;-78
2022/10/31 12:00:31;;;;;;;8.70;6.93;;;14.60;99.90;;;;;;5135216;27;20046;-76
2022/10/31 12:03:22;;;;;;;12.55;6.82;;;14.90;99.90;;;;;;5124777;28;20043;-78
2022/10/31 12:05:55;;;;;;;8.95;6.25;;;14.70;99.90;;;;;;5139379;27;20427;-78
2022/10/31 12:08:21;;;;;;;11.03;6.57;;;14.70;99.90;;;;;;5145398;27;20043;-77
2022/10/31 12:10:59;;;;;;;7.10;6.13;;;14.70;99.90;;;;;;5141295;27;20043;-77
2022/10/31 12:13:41;;;;;;;11.65;5.88;;;14.80;99.90;;;;;;5121660;27;20057;-76
2022/10/31 12:16:20;;;;;;;10.20;5.82;;;14.80;99.90;;;;;;5120523;28;20506;-76
2022/10/31 12:19:04;;;;;;;9.02;6.65;;;14.90;99.90;;;;;;5135972;27;20042;-76
2022/10/31 12:21:38;;;;;;;;;;;14.90;99.90;;;;;;5137308;27;20046;-76
2022/10/31 12:24:42;;;;;;;7.50;5.85;;;15.00;99.90;;;;;;5098940;27;19953;-76
2022/10/31 12:27:32;;;;;;;7.45;4.68;;;14.90;99.90;;;;;;5076359;27;20047;-76
2022/10/31 12:30:06;;;;;;;7.88;4.30;;;14.90;99.90;;;;;;5126620;27;20058;-77
2022/10/31 12:32:55;;;;;;;7.22;4.88;;;15.00;99.90;;;;;;5139819;27;20044;-76
2022/10/31 12:35:46;;;;;;;10.82;5.55;;;14.90;99.90;;;;;;5147222;27;20509;-75
2022/10/31 12:38:34;;;;;;;10.15;5.45;;;14.80;99.90;;;;;;5140813;27;20043;-76
2022/10/31 12:41:34;;;;;;;8.77;5.53;;;14.80;99.90;;;;;;5129724;27;20042;-76
2022/10/31 12:44:12;;;;;;;9.18;5.38;;;14.80;99.90;;;;;;5130376;27;20519;-75
2022/10/31 12:47:11;;;;;;;13.60;7.53;;;14.80;99.90;;;;;;5146331;27;20089;-75
2022/10/31 12:49:59;;;;;;;14.60;6.57;;;14.70;99.90;;;;;;5107300;27;20096;-75
2022/10/31 12:52:24;;;;;;;10.65;6.05;;;14.80;99.90;;;;;;5132440;27;20046;-75
2022/10/31 12:55:03;;;;;;;10.85;5.55;;;14.80;99.90;;;;;;5124920;27;20508;-76